createdAt,value
2018-03-26T00:02:03.096Z,49.23
2018-03-26T00:04:31.506Z,56.07
2018-03-26T00:07:00.619Z,51.90
2018-03-26T00:09:29.077Z,45.17
2018-03-26T00:11:57.386Z,44.67
2018-03-26T00:14:26.485Z,46.07
2018-03-26T00:16:55.551Z,45.87
2018-03-26T00:19:23.872Z,53.13
2018-03-26T00:21:52.198Z,51.73
2018-03-26T00:24:20.494Z,52.07
2018-03-26T00:26:48.804Z,52.60
2018-03-26T00:29:17.885Z,50.77
2018-03-26T00:31:46.197Z,46.37
2018-03-26T00:34:15.332Z,49.17
2018-03-26T00:36:43.639Z,48.77
2018-03-26T00:39:11.940Z,46.37
2018-03-26T00:41:40.263Z,49.60
2018-03-26T00:44:08.577Z,46.00
2018-03-26T00:46:36.885Z,47.30
2018-03-26T00:49:05.191Z,44.90
2018-03-26T00:51:34.293Z,41.77
2018-03-26T00:54:03.411Z,39.40
2018-03-26T00:56:31.722Z,39.77
2018-03-26T00:59:00.082Z,37.07
2018-03-26T01:01:28.341Z,36.83
2018-03-26T01:03:56.655Z,37.53
2018-03-26T01:06:24.973Z,39.17
2018-03-26T01:08:53.279Z,36.20
2018-03-26T01:11:22.342Z,39.60
2018-03-26T01:13:50.667Z,36.33
2018-03-26T01:16:19.730Z,33.97
2018-03-26T01:18:48.043Z,33.83
2018-03-26T01:21:17.107Z,37.77
2018-03-26T01:23:45.438Z,39.23
2018-03-26T01:26:13.769Z,36.63
2018-03-26T01:28:42.086Z,40.90
2018-03-26T01:31:11.187Z,41.50
2018-03-26T01:33:40.255Z,40.00
2018-03-26T01:36:08.553Z,39.93
2018-03-26T01:38:36.865Z,38.70
2018-03-26T01:41:05.185Z,36.70
2018-03-26T01:43:33.510Z,37.83
2018-03-26T01:46:03.424Z,38.00
2018-03-26T01:48:32.509Z,35.50
2018-03-26T01:51:00.825Z,42.67
2018-03-26T01:53:29.136Z,39.70
2018-03-26T01:55:57.451Z,37.17
2018-03-26T01:58:25.756Z,37.87
2018-03-26T02:00:54.817Z,37.77
2018-03-26T02:03:23.142Z,36.57
2018-03-26T02:05:52.221Z,37.40
2018-03-26T02:08:20.527Z,34.80
2018-03-26T02:10:49.601Z,33.33
2018-03-26T02:13:17.919Z,36.00
2018-03-26T02:15:46.208Z,34.97
2018-03-26T02:18:14.527Z,33.50
2018-03-26T02:20:42.977Z,34.53
2018-03-26T02:23:11.295Z,36.63
2018-03-26T02:25:39.605Z,33.80
2018-03-26T02:28:08.679Z,37.07
2018-03-26T02:30:36.989Z,35.00
2018-03-26T02:33:06.072Z,33.63
2018-03-26T02:35:34.400Z,34.33
2018-03-26T02:38:02.731Z,32.37
2018-03-26T02:40:31.037Z,32.77
2018-03-26T02:43:00.115Z,33.07
2018-03-26T02:45:28.416Z,32.27
2018-03-26T02:47:57.489Z,32.00
2018-03-26T02:50:25.808Z,31.30
2018-03-26T02:52:54.888Z,33.13
2018-03-26T02:55:23.197Z,31.90
2018-03-26T02:57:52.357Z,32.27
2018-03-26T03:00:20.671Z,33.20
2018-03-26T03:02:49.744Z,34.97
2018-03-26T03:05:18.067Z,34.27
2018-03-26T03:07:46.369Z,34.13
2018-03-26T03:10:14.677Z,36.50
2018-03-26T03:12:42.987Z,33.53
2018-03-26T03:15:12.055Z,33.77
2018-03-26T03:17:40.382Z,37.93
2018-03-26T03:20:09.461Z,37.83
2018-03-26T03:22:37.848Z,37.30
2018-03-26T03:25:06.117Z,36.77
2018-03-26T03:27:34.453Z,37.00
2018-03-26T03:30:02.787Z,35.77
2018-03-26T03:32:31.873Z,38.47
2018-03-26T03:35:00.299Z,38.60
2018-03-26T03:37:28.618Z,40.03
2018-03-26T03:39:56.938Z,40.83
2018-03-26T03:42:25.247Z,41.40
2018-03-26T03:44:53.591Z,38.30
2018-03-26T03:47:21.967Z,40.47
2018-03-26T03:49:50.457Z,42.13
2018-03-26T03:52:18.774Z,41.40
2018-03-26T03:54:47.859Z,41.33
2018-03-26T03:57:16.931Z,38.20
2018-03-26T03:59:45.254Z,36.60
2018-03-26T04:02:14.329Z,35.47
2018-03-26T04:04:42.644Z,36.10
2018-03-26T04:07:10.990Z,35.80
2018-03-26T04:09:39.325Z,36.30
2018-03-26T04:12:07.633Z,36.27
2018-03-26T04:14:35.937Z,40.50
2018-03-26T04:17:04.257Z,38.47
2018-03-26T04:19:32.572Z,36.00
2018-03-26T04:22:00.900Z,37.70
2018-03-26T04:24:29.990Z,39.17
2018-03-26T04:26:59.086Z,41.23
2018-03-26T04:29:27.394Z,43.90
2018-03-26T04:31:55.718Z,41.87
2018-03-26T04:34:24.804Z,39.03
2018-03-26T04:36:53.111Z,42.97
2018-03-26T04:39:21.425Z,42.60
2018-03-26T04:41:50.488Z,47.17
2018-03-26T04:44:18.816Z,45.37
2018-03-26T04:46:47.117Z,45.20
2018-03-26T04:49:15.419Z,47.23
2018-03-26T04:51:43.718Z,49.87
2018-03-26T04:54:12.037Z,48.57
2018-03-26T04:56:41.105Z,44.50
2018-03-26T04:59:09.448Z,46.33
2018-03-26T05:01:37.763Z,47.17
2018-03-26T05:04:06.086Z,45.63
2018-03-26T05:06:35.162Z,44.20
2018-03-26T05:09:03.592Z,45.13
2018-03-26T05:11:31.945Z,39.87
2018-03-26T05:14:01.046Z,42.37
2018-03-26T05:16:30.139Z,40.67
2018-03-26T05:18:59.227Z,37.83
2018-03-26T05:21:27.554Z,36.43
2018-03-26T05:23:55.863Z,38.03
2018-03-26T05:26:24.192Z,39.07
2018-03-26T05:28:53.526Z,34.43
2018-03-26T05:31:21.835Z,31.57
2018-03-26T05:33:50.264Z,28.87
2018-03-26T05:36:19.362Z,27.03
2018-03-26T05:38:48.456Z,26.73
2018-03-26T05:41:17.530Z,26.67
2018-03-26T05:43:45.834Z,26.67
2018-03-26T05:46:14.900Z,24.83
2018-03-26T05:48:43.225Z,25.23
2018-03-26T05:51:12.300Z,27.77
2018-03-26T05:53:40.952Z,27.07
2018-03-26T05:56:09.300Z,24.60
2018-03-26T05:58:38.376Z,24.50
2018-03-26T06:01:07.478Z,25.80
2018-03-26T06:03:36.684Z,24.77
2018-03-26T06:06:05.776Z,27.50
2018-03-26T06:08:34.615Z,28.50
2018-03-26T06:11:02.935Z,26.97
2018-03-26T06:13:31.242Z,32.67
2018-03-26T06:16:00.334Z,31.77
2018-03-26T06:18:28.644Z,34.47
2018-03-26T06:20:57.722Z,32.77
2018-03-26T06:23:26.830Z,31.10
2018-03-26T06:25:55.902Z,32.00
2018-03-26T06:28:24.215Z,30.93
2018-03-26T06:30:53.286Z,31.87
2018-03-26T06:33:21.611Z,33.63
2018-03-26T06:35:49.948Z,34.30
2018-03-26T06:38:18.288Z,34.67
2018-03-26T06:40:46.627Z,36.57
2018-03-26T06:43:14.963Z,36.90
2018-03-26T06:45:43.272Z,35.43
2018-03-26T06:48:11.585Z,34.87
2018-03-26T06:50:40.653Z,33.73
2018-03-26T06:53:08.979Z,32.60
2018-03-26T06:55:38.062Z,29.97
2018-03-26T06:58:07.158Z,29.83
2018-03-26T07:00:35.519Z,29.00
2018-03-26T07:03:03.841Z,27.50
2018-03-26T07:05:32.918Z,29.73
2018-03-26T07:08:01.356Z,29.40
2018-03-26T07:10:30.474Z,29.10
2018-03-26T07:12:58.788Z,27.50
2018-03-26T07:15:27.112Z,31.27
2018-03-26T07:17:55.432Z,27.83
2018-03-26T07:20:23.776Z,28.97
2018-03-26T07:22:52.088Z,26.70
2018-03-26T07:25:20.426Z,28.50
2018-03-26T07:27:49.520Z,27.20
2018-03-26T07:30:17.820Z,27.90
2018-03-26T07:32:46.525Z,27.40
2018-03-26T07:35:14.910Z,26.83
2018-03-26T07:37:43.228Z,26.43
2018-03-26T07:40:11.537Z,25.60
2018-03-26T07:42:40.606Z,26.17
2018-03-26T07:45:08.913Z,26.40
2018-03-26T07:47:37.997Z,24.03
2018-03-26T07:50:06.322Z,22.50
2018-03-26T07:52:34.632Z,21.27
2018-03-26T07:55:02.950Z,18.43
2018-03-26T07:57:31.262Z,17.47
2018-03-26T07:59:59.588Z,16.10
2018-03-26T08:02:27.904Z,17.20
2018-03-26T08:04:57.001Z,19.47
2018-03-26T08:07:25.302Z,18.53
2018-03-26T08:09:54.421Z,20.93
2018-03-26T08:12:22.743Z,22.33
2018-03-26T08:14:51.052Z,21.30
2018-03-26T08:17:20.171Z,20.50
2018-03-26T08:19:48.448Z,23.27
2018-03-26T08:22:16.754Z,21.10
2018-03-26T08:24:45.078Z,21.60
2018-03-26T08:27:13.404Z,20.70
2018-03-26T08:29:41.720Z,21.47
2018-03-26T08:32:11.029Z,20.70
2018-03-26T08:34:39.336Z,19.60
2018-03-26T08:37:08.405Z,16.10
2018-03-26T08:39:36.736Z,13.47
2018-03-26T08:42:05.822Z,12.53
2018-03-26T08:44:34.145Z,13.20
2018-03-26T08:47:02.468Z,11.73
2018-03-26T08:49:32.300Z,12.27
2018-03-26T08:52:00.613Z,12.07
2018-03-26T08:54:28.920Z,9.10
2018-03-26T08:56:57.312Z,7.80
2018-03-26T08:59:25.649Z,6.93
2018-03-26T09:01:54.724Z,6.57
2018-03-26T09:04:23.048Z,6.83
2018-03-26T09:06:51.437Z,7.20
2018-03-26T09:09:19.771Z,7.00
2018-03-26T09:11:48.106Z,7.27
2018-03-26T09:14:16.430Z,7.10
2018-03-26T09:16:44.735Z,5.63
2018-03-26T09:19:13.852Z,6.40
2018-03-26T09:21:42.186Z,6.93
2018-03-26T09:24:10.500Z,5.80
2018-03-26T09:26:39.561Z,5.37
2018-03-26T09:29:07.904Z,5.30
2018-03-26T09:31:36.237Z,4.43
2018-03-26T09:34:04.542Z,4.00
2018-03-26T09:36:33.627Z,4.87
2018-03-26T09:39:01.972Z,4.67
2018-03-26T09:41:30.288Z,4.20
2018-03-26T09:43:58.611Z,4.60
2018-03-26T09:46:26.926Z,3.90
2018-03-26T09:48:55.261Z,4.80
2018-03-26T09:51:24.338Z,4.43
2018-03-26T09:53:52.694Z,4.23
2018-03-26T09:56:21.012Z,4.90
2018-03-26T09:58:50.197Z,4.10
2018-03-26T10:01:18.476Z,5.07
2018-03-26T10:03:46.817Z,6.80
2018-03-26T10:06:15.122Z,5.47
2018-03-26T10:08:43.424Z,5.33
2018-03-26T10:11:11.747Z,5.30
2018-03-26T10:13:40.151Z,4.80
2018-03-26T10:16:08.477Z,7.47
2018-03-26T10:18:36.807Z,6.47
2018-03-26T10:21:05.125Z,6.13
2018-03-26T10:23:33.432Z,6.90
2018-03-26T10:26:01.742Z,6.40
2018-03-26T10:28:30.074Z,7.83
2018-03-26T10:30:58.385Z,6.93
2018-03-26T10:33:26.692Z,8.00
2018-03-26T10:35:54.995Z,7.77
2018-03-26T10:38:23.326Z,7.27
2018-03-26T10:40:51.637Z,7.80
2018-03-26T10:43:19.979Z,8.30
2018-03-26T10:45:48.340Z,9.40
2018-03-26T10:48:16.654Z,9.27
2018-03-26T10:50:44.981Z,10.30
2018-03-26T10:53:13.314Z,10.73
2018-03-26T10:55:41.643Z,9.67
2018-03-26T10:58:09.952Z,8.87
2018-03-26T11:00:38.290Z,9.33
2018-03-26T11:03:06.621Z,8.93
2018-03-26T11:05:34.955Z,9.00
2018-03-26T11:08:03.270Z,8.87
2018-03-26T11:10:31.568Z,8.57
2018-03-26T11:13:00.625Z,7.00
2018-03-26T11:15:28.930Z,6.47
2018-03-26T11:17:57.325Z,6.50
2018-03-26T11:20:25.724Z,6.50
2018-03-26T11:22:54.043Z,7.80
2018-03-26T11:25:22.359Z,7.77
2018-03-26T11:27:50.683Z,7.93
2018-03-26T11:30:19.004Z,7.80
2018-03-26T11:32:47.326Z,9.00
2018-03-26T11:35:15.657Z,8.90
2018-03-26T11:37:44.740Z,8.00
2018-03-26T11:40:13.819Z,7.97
2018-03-26T11:42:42.207Z,8.00
2018-03-26T11:45:10.534Z,7.40
2018-03-26T11:47:39.620Z,8.03
2018-03-26T11:50:07.934Z,6.97
2018-03-26T11:52:36.263Z,7.33
2018-03-26T11:55:04.583Z,6.90
2018-03-26T11:57:32.903Z,7.23
2018-03-26T12:00:01.219Z,6.20
2018-03-26T12:02:30.350Z,6.70
2018-03-26T12:04:58.721Z,6.80
2018-03-26T12:07:27.043Z,7.70
2018-03-26T12:09:56.309Z,6.70
2018-03-26T12:12:24.613Z,7.33
2018-03-26T12:14:52.951Z,8.00
2018-03-26T12:17:22.059Z,7.87
2018-03-26T12:20:08.754Z,6.63
2018-03-26T12:22:37.819Z,6.77
2018-03-26T12:25:16.194Z,5.60
2018-03-26T12:28:02.148Z,6.60
2018-03-26T12:30:31.232Z,6.87
2018-03-26T12:32:59.536Z,5.17
2018-03-26T12:35:46.481Z,5.33
2018-03-26T12:38:15.657Z,4.57
2018-03-26T12:40:50.724Z,5.20
2018-03-26T12:43:19.042Z,4.00
2018-03-26T12:46:05.279Z,4.40
2018-03-26T12:48:33.603Z,4.00
2018-03-26T12:51:19.513Z,3.87
2018-03-26T12:53:48.588Z,4.77
2018-03-26T12:56:16.980Z,5.60
2018-03-26T12:58:48.399Z,4.97
2018-03-26T13:01:34.360Z,5.60
2018-03-26T13:04:02.696Z,6.60
2018-03-26T13:06:31.037Z,6.93
2018-03-26T13:08:59.357Z,6.43
2018-03-26T13:11:27.667Z,7.57
2018-03-26T13:13:56.756Z,8.47
2018-03-26T13:16:25.830Z,9.50
2018-03-26T13:18:54.175Z,10.50
2018-03-26T13:21:22.516Z,10.30
2018-03-26T13:23:50.861Z,11.03
2018-03-26T13:26:19.232Z,11.50
2018-03-26T13:28:47.671Z,12.27
2018-03-26T13:31:16.797Z,14.13
2018-03-26T13:33:45.179Z,15.23
2018-03-26T13:36:13.477Z,13.60
2018-03-26T13:38:41.805Z,13.10
2018-03-26T13:41:10.109Z,12.30
2018-03-26T13:43:39.268Z,12.77
2018-03-26T13:46:07.615Z,14.40
2018-03-26T13:48:35.939Z,15.70
2018-03-26T13:51:04.294Z,17.97
2018-03-26T13:53:32.613Z,16.03
2018-03-26T13:56:00.959Z,15.67
2018-03-26T13:58:30.035Z,21.40
2018-03-26T14:00:58.356Z,21.70
2018-03-26T14:03:26.685Z,22.07
2018-03-26T14:05:55.763Z,24.60
2018-03-26T14:08:41.881Z,24.43
2018-03-26T14:11:27.962Z,27.37
2018-03-26T14:14:14.766Z,28.73
2018-03-26T14:17:00.744Z,28.90
2018-03-26T14:19:29.850Z,28.47
2018-03-26T14:21:58.950Z,30.60
2018-03-26T14:24:27.293Z,32.10
2018-03-26T14:26:55.613Z,32.50
2018-03-26T14:29:24.712Z,31.63
2018-03-26T14:31:53.053Z,33.00
2018-03-26T14:34:21.397Z,30.37
2018-03-26T14:36:49.766Z,29.43
2018-03-26T14:39:18.859Z,32.27
2018-03-26T14:41:47.951Z,30.90
2018-03-26T14:44:16.291Z,33.70
2018-03-26T14:46:44.612Z,32.30
2018-03-26T14:49:12.935Z,34.23
2018-03-26T14:51:41.287Z,32.60
2018-03-26T14:54:10.373Z,34.27
2018-03-26T14:56:38.681Z,33.53
2018-03-26T14:59:07.006Z,34.73
2018-03-26T15:01:35.339Z,36.90
2018-03-26T15:04:04.420Z,34.27
2018-03-26T15:06:32.789Z,34.50
2018-03-26T15:09:01.153Z,31.80
2018-03-26T15:11:29.526Z,32.17
2018-03-26T15:13:57.878Z,31.43
2018-03-26T15:16:26.305Z,32.63
2018-03-26T15:18:54.664Z,32.07
2018-03-26T15:21:23.016Z,33.93
2018-03-26T15:23:52.252Z,32.10
2018-03-26T15:26:20.577Z,34.90
2018-03-26T15:28:49.784Z,34.17
2018-03-26T15:31:18.889Z,34.20
2018-03-26T15:33:47.207Z,39.30
2018-03-26T15:36:16.435Z,42.27
2018-03-26T15:38:44.761Z,36.90
2018-03-26T15:41:13.111Z,40.97
2018-03-26T15:43:41.495Z,37.67
2018-03-26T15:46:09.891Z,39.17
2018-03-26T15:48:38.359Z,37.63
2018-03-26T15:51:06.697Z,31.57
2018-03-26T15:53:35.051Z,24.97
2018-03-26T15:56:03.364Z,20.73
2018-03-26T15:58:32.552Z,19.13
2018-03-26T16:01:01.633Z,20.47
2018-03-26T16:03:31.321Z,19.20
2018-03-26T16:05:59.766Z,21.63
2018-03-26T16:08:28.133Z,18.60
2018-03-26T16:10:56.465Z,20.50
2018-03-26T16:18:04.033Z,13.40
2018-03-26T16:20:32.364Z,12.23
2018-03-26T16:23:00.781Z,12.20
2018-03-26T16:25:29.164Z,13.30
2018-03-26T16:27:57.476Z,12.93
2018-03-26T16:30:26.715Z,12.50
2018-03-26T16:32:55.224Z,12.03
2018-03-26T16:35:23.681Z,10.80
2018-03-26T16:37:52.821Z,10.80
2018-03-26T16:40:21.168Z,11.43
2018-03-26T16:42:53.921Z,11.20
2018-03-26T16:45:22.235Z,10.87
2018-03-26T16:47:50.589Z,11.30
2018-03-26T16:50:19.001Z,10.60
2018-03-26T16:52:47.633Z,10.70
2018-03-26T16:55:16.046Z,10.50
2018-03-26T16:57:45.159Z,10.03
2018-03-26T17:00:14.279Z,8.73
2018-03-26T17:02:42.619Z,9.63
2018-03-26T17:05:11.045Z,8.40
2018-03-26T17:07:39.395Z,8.60
2018-03-26T17:10:08.505Z,8.20
2018-03-26T17:12:37.619Z,7.23
2018-03-26T17:15:05.959Z,8.90
2018-03-26T17:17:34.320Z,9.60
2018-03-26T17:20:02.651Z,10.40
2018-03-26T17:22:31.001Z,9.97
2018-03-26T17:24:59.401Z,9.23
2018-03-26T17:27:28.507Z,10.60
2018-03-26T17:29:58.379Z,8.63
2018-03-26T17:32:26.686Z,9.43
2018-03-26T17:34:55.012Z,8.70
2018-03-26T17:37:23.344Z,7.40
2018-03-26T17:39:51.681Z,7.93
2018-03-26T17:42:20.024Z,7.93
2018-03-26T17:44:49.860Z,9.00
2018-03-26T17:47:18.214Z,9.40
2018-03-26T17:49:47.307Z,8.70
2018-03-26T17:52:15.613Z,9.83
2018-03-26T17:54:44.693Z,9.60
2018-03-26T17:57:13.789Z,11.23
2018-03-26T17:59:42.121Z,11.50
2018-03-26T18:02:10.451Z,12.23
2018-03-26T18:04:39.536Z,15.00
2018-03-26T18:07:07.149Z,9.33
2018-03-26T18:09:35.463Z,11.70
2018-03-26T18:12:04.583Z,9.43
2018-03-26T18:14:32.952Z,11.73
2018-03-26T18:17:01.322Z,15.83
2018-03-26T18:19:29.718Z,14.60
2018-03-26T18:21:58.067Z,10.87
2018-03-26T18:24:26.433Z,12.67
2018-03-26T18:26:54.799Z,15.57
2018-03-26T18:29:23.916Z,19.43
2018-03-26T18:31:52.269Z,19.17
2018-03-26T18:34:21.264Z,16.87
2018-03-26T18:36:50.394Z,14.80
2018-03-26T18:39:18.725Z,21.13
2018-03-26T18:41:47.111Z,27.43
2018-03-26T18:44:15.527Z,26.57
2018-03-26T18:46:43.927Z,21.83
2018-03-26T18:49:12.278Z,21.57
2018-03-26T18:51:41.460Z,24.40
2018-03-26T18:54:09.812Z,14.07
2018-03-26T18:56:38.505Z,46.93
2018-03-26T18:59:06.943Z,57.20
2018-03-26T19:01:36.337Z,23.53
2018-03-26T19:04:05.501Z,21.10
2018-03-26T19:06:33.882Z,18.73
2018-03-26T19:09:02.238Z,21.20
2018-03-26T19:11:30.599Z,22.30
2018-03-26T19:13:59.841Z,22.33
2018-03-26T19:16:28.170Z,22.97
2018-03-26T19:18:57.653Z,23.23
2018-03-26T19:21:26.107Z,22.80
2018-03-26T19:23:54.476Z,24.30
2018-03-26T19:26:22.806Z,25.77
2018-03-26T19:28:51.774Z,23.10
2018-03-26T19:31:20.336Z,20.07
2018-03-26T19:33:48.648Z,19.97
2018-03-26T19:36:16.981Z,20.23
2018-03-26T19:38:45.371Z,20.33
2018-03-26T19:41:13.786Z,22.97
2018-03-26T19:43:42.197Z,22.67
2018-03-26T19:46:10.524Z,22.20
2018-03-26T19:48:38.905Z,23.00
2018-03-26T19:51:07.354Z,25.47
2018-03-26T19:53:36.447Z,26.53
2018-03-26T19:56:04.823Z,27.97
2018-03-26T19:58:33.154Z,28.37
2018-03-26T20:01:01.498Z,31.30
2018-03-26T20:03:30.646Z,38.70
2018-03-26T20:05:59.076Z,33.57
2018-03-26T20:08:27.464Z,30.33
2018-03-26T20:10:56.724Z,28.90
2018-03-26T20:13:25.203Z,29.70
2018-03-26T20:15:53.687Z,34.20
2018-03-26T20:18:22.035Z,51.30
2018-03-26T20:20:50.420Z,25.70
2018-03-26T20:23:18.763Z,20.03
2018-03-26T20:25:47.095Z,24.80
2018-03-26T20:28:15.508Z,25.73
2018-03-26T20:30:43.832Z,20.77
2018-03-26T20:33:12.958Z,26.40
2018-03-26T20:35:41.248Z,27.17
2018-03-26T20:38:10.300Z,23.00
2018-03-26T20:40:39.415Z,26.57
2018-03-26T20:43:08.527Z,31.87
2018-03-26T20:45:36.842Z,29.70
2018-03-26T20:48:05.180Z,28.23
2018-03-26T20:50:34.270Z,25.03
2018-03-26T20:53:03.616Z,21.67
2018-03-26T20:55:31.948Z,19.17
2018-03-26T20:58:01.065Z,21.30
2018-03-26T21:00:29.440Z,21.00
2018-03-26T21:02:57.814Z,22.07
2018-03-26T21:05:26.944Z,19.90
2018-03-26T21:07:56.136Z,21.03
2018-03-26T21:10:24.486Z,23.47
2018-03-26T21:12:52.826Z,22.10
2018-03-26T21:15:21.143Z,18.30
2018-03-26T21:17:49.574Z,16.20
2018-03-26T21:20:17.880Z,16.50
2018-03-26T21:22:46.213Z,17.53
2018-03-26T21:25:15.324Z,19.90
2018-03-26T21:27:43.676Z,19.07
2018-03-26T21:30:12.000Z,18.53
2018-03-26T21:32:40.348Z,17.80
2018-03-26T21:35:09.458Z,17.87
2018-03-26T21:37:38.475Z,19.30
2018-03-26T21:40:06.793Z,17.43
2018-03-26T21:42:35.124Z,18.03
2018-03-26T21:45:03.438Z,17.80
2018-03-26T21:47:31.758Z,16.40
2018-03-26T21:50:01.596Z,15.30
2018-03-26T21:52:29.918Z,16.87
2018-03-26T21:54:58.218Z,15.87
2018-03-26T21:57:26.548Z,17.70
2018-03-26T21:59:54.920Z,16.50
2018-03-26T22:02:23.210Z,16.20
2018-03-26T22:04:51.828Z,18.00
2018-03-26T22:07:20.166Z,16.93
2018-03-26T22:09:48.514Z,15.43
2018-03-26T22:12:16.847Z,16.77
2018-03-26T22:14:45.249Z,16.10
2018-03-26T22:17:13.580Z,16.27
2018-03-26T22:19:42.668Z,16.10
2018-03-26T22:22:11.452Z,16.70
2018-03-26T22:24:39.870Z,17.30
2018-03-26T22:27:08.236Z,18.93
2018-03-26T22:29:37.333Z,17.83
2018-03-26T22:32:07.232Z,17.07
2018-03-26T22:34:35.535Z,16.60
2018-03-26T22:37:04.646Z,15.90
2018-03-26T22:39:32.986Z,15.93
2018-03-26T22:42:01.336Z,17.13
2018-03-26T22:44:29.691Z,16.40
2018-03-26T22:46:58.080Z,18.03
2018-03-26T22:49:26.400Z,21.03
2018-03-26T22:51:56.247Z,20.83
2018-03-26T22:54:24.646Z,25.20
2018-03-26T22:56:53.008Z,25.10
2018-03-26T22:59:22.108Z,24.03
2018-03-26T23:01:50.450Z,21.13
2018-03-26T23:04:18.783Z,22.70
2018-03-26T23:06:47.881Z,25.93
2018-03-26T23:09:17.036Z,29.47
2018-03-26T23:11:45.377Z,24.37
2018-03-26T23:14:13.716Z,26.37
2018-03-26T23:16:42.076Z,25.83
2018-03-26T23:19:10.503Z,23.90
2018-03-26T23:21:39.947Z,23.77
2018-03-26T23:24:08.402Z,23.53
2018-03-26T23:26:36.752Z,21.27
2018-03-26T23:29:05.099Z,18.67
2018-03-26T23:31:33.465Z,24.17
2018-03-26T23:34:02.217Z,26.20
2018-03-26T23:36:31.386Z,22.27
2018-03-26T23:38:59.741Z,22.33
2018-03-26T23:41:28.087Z,23.20
2018-03-26T23:43:56.447Z,24.00
2018-03-26T23:46:24.754Z,26.20
2018-03-26T23:48:53.883Z,20.87
2018-03-26T23:51:22.202Z,15.37
2018-03-26T23:53:50.516Z,15.70
2018-03-26T23:56:19.604Z,15.70
2018-03-26T23:58:48.747Z,14.87
